Terminal Aerodrome Forecast
Issued by NWS Spokane, WA

Home | Current Version | Previous Version | Text Only | Print | Product List | Glossary On
Versions: 1 2 3 4 5 6 7 8 9 10 11 12 13 14 15 16 17 18 19 20 21 22 23 24 25 26 27
000
FTUS46 KOTX 071142 CCA
TAFEAT
TAF COR
KEAT 071142Z 0712/0812 32003KT P6SM SCT120
     FM071700 VRB03KT P6SM BKN100 BKN200
     FM080000 02003KT P6SM FEW250
     FM081100 30003KT 6SM BR VCFG FEW001 SCT250=

USA.gov is the U.S. government's official web portal to all federal, state and local government web resources and services.